createdAt,value
2018-12-22T00:00:33.938Z,99551.30
2018-12-22T00:03:03.351Z,99535.25
2018-12-22T00:05:32.651Z,99541.14
2018-12-22T00:08:01.923Z,99542.64
2018-12-22T00:10:31.444Z,99546.77
2018-12-22T00:13:00.985Z,99549.88
2018-12-22T00:15:30.185Z,99548.81
2018-12-22T00:17:59.860Z,99541.39
2018-12-22T00:20:32.204Z,99555.22
2018-12-22T00:23:01.362Z,99558.52
2018-12-22T00:25:30.531Z,99562.91
2018-12-22T00:27:59.986Z,99555.80
2018-12-22T00:30:29.281Z,99560.64
2018-12-22T00:32:58.428Z,99569.97
2018-12-22T00:35:27.783Z,99573.49
2018-12-22T00:37:56.996Z,99561.45
2018-12-22T00:40:26.139Z,99570.36
2018-12-22T00:42:55.631Z,99573.35
2018-12-22T00:45:25.184Z,99577.84
2018-12-22T00:47:54.545Z,99595.63
2018-12-22T00:50:23.668Z,99595.96
2018-12-22T00:52:52.801Z,99595.45
2018-12-22T00:55:22.245Z,99603.34
2018-12-22T00:57:51.965Z,99601.89
2018-12-22T01:00:21.162Z,99611.94
2018-12-22T01:02:50.452Z,99629.11
2018-12-22T01:05:19.642Z,99627.85
2018-12-22T01:07:48.816Z,99635.89
2018-12-22T01:10:18.007Z,99644.26
2018-12-22T01:12:47.516Z,99650.13
2018-12-22T01:15:16.656Z,99644.98
2018-12-22T01:17:46.120Z,99648.44
2018-12-22T01:20:15.363Z,99665.25
2018-12-22T01:22:44.729Z,99662.62
2018-12-22T01:25:13.854Z,99668.22
2018-12-22T01:27:43.420Z,99674.53
2018-12-22T01:30:12.974Z,99676.30
2018-12-22T01:32:42.640Z,99669.13
2018-12-22T01:35:11.804Z,99677.20
2018-12-22T01:37:41.257Z,99667.54
2018-12-22T01:40:10.439Z,99677.27
2018-12-22T01:42:40.128Z,99676.18
2018-12-22T01:45:15.819Z,99674.14
2018-12-22T01:47:45.636Z,99691.77
2018-12-22T01:50:14.861Z,99682.88
2018-12-22T01:52:44.368Z,99691.38
2018-12-22T01:55:13.932Z,99691.61
2018-12-22T01:57:43.066Z,99689.85
2018-12-22T02:00:12.585Z,99685.81
2018-12-22T02:02:42.146Z,99686.81
2018-12-22T02:05:11.465Z,99696.98
2018-12-22T02:07:40.842Z,99708.97
2018-12-22T02:10:09.946Z,99716.13
2018-12-22T02:12:39.259Z,99724.74
2018-12-22T02:15:08.817Z,99718.94
2018-12-22T02:17:37.951Z,99728.75
2018-12-22T02:20:07.702Z,99726.39
2018-12-22T02:22:37.103Z,99726.72
2018-12-22T02:25:06.469Z,99734.72
2018-12-22T02:27:35.849Z,99737.34
2018-12-22T02:30:05.251Z,99733.45
2018-12-22T02:32:34.785Z,99732.67
2018-12-22T02:35:04.292Z,99734.36
2018-12-22T02:37:33.698Z,99733.70
2018-12-22T02:40:02.864Z,99733.52
2018-12-22T02:42:32.603Z,99740.45
2018-12-22T02:45:01.951Z,99739.47
2018-12-22T02:47:31.096Z,99736.98
2018-12-22T02:50:00.655Z,99742.19
2018-12-22T02:52:30.105Z,99755.23
2018-12-22T02:54:59.720Z,99751.57
2018-12-22T02:57:28.863Z,99753.23
2018-12-22T02:59:58.276Z,99757.11
2018-12-22T03:02:27.393Z,99762.23
2018-12-22T03:04:56.680Z,99757.90
2018-12-22T03:07:25.881Z,99764.69
2018-12-22T03:09:55.284Z,99754.91
2018-12-22T03:12:25.077Z,99768.53
2018-12-22T03:14:54.439Z,99761.02
2018-12-22T03:17:23.892Z,99756.22
2018-12-22T03:19:53.189Z,99757.95
2018-12-22T03:22:22.352Z,99757.79
2018-12-22T03:24:52.094Z,99766.56
2018-12-22T03:27:21.247Z,99769.06
2018-12-22T03:29:50.498Z,99779.48
2018-12-22T03:32:19.854Z,99790.67
2018-12-22T03:34:49.120Z,99788.85
2018-12-22T03:37:18.309Z,99801.41
2018-12-22T03:39:47.533Z,99804.05
2018-12-22T03:42:16.681Z,99801.05
2018-12-22T03:44:45.901Z,99809.20
2018-12-22T03:47:15.294Z,99811.72
2018-12-22T03:49:44.680Z,99820.77
2018-12-22T03:52:14.409Z,99813.02
2018-12-22T03:54:43.751Z,99815.56
2018-12-22T03:57:13.164Z,99823.34
2018-12-22T03:59:42.579Z,99831.92
2018-12-22T04:02:11.707Z,99824.58
2018-12-22T04:04:40.978Z,99833.63
2018-12-22T04:07:10.173Z,99829.29
2018-12-22T04:09:39.401Z,99825.84
2018-12-22T04:12:08.910Z,99831.04
2018-12-22T04:14:38.447Z,99833.59
2018-12-22T04:17:07.520Z,99830.58
2018-12-22T04:19:36.995Z,99836.60
2018-12-22T04:22:06.194Z,99835.56
2018-12-22T04:24:35.486Z,99850.66
2018-12-22T04:27:05.036Z,99858.91
2018-12-22T04:29:34.466Z,99849.48
2018-12-22T04:32:03.941Z,99855.95
2018-12-22T04:34:33.304Z,99860.22
2018-12-22T04:37:02.434Z,99856.78
2018-12-22T04:39:31.616Z,99857.64
2018-12-22T04:42:00.847Z,99856.75
2018-12-22T04:44:30.141Z,99861.90
2018-12-22T04:46:59.227Z,99856.70
2018-12-22T04:49:28.830Z,99870.80
2018-12-22T04:51:58.261Z,99864.44
2018-12-22T04:54:27.376Z,99861.93
2018-12-22T04:56:56.545Z,99855.04
2018-12-22T04:59:26.021Z,99861.84
2018-12-22T05:01:55.106Z,99866.05
2018-12-22T05:04:24.819Z,99864.37
2018-12-22T05:06:53.948Z,99869.59
2018-12-22T05:09:23.152Z,99881.91
2018-12-22T05:11:52.838Z,99883.26
2018-12-22T05:14:22.052Z,99887.67
2018-12-22T05:16:51.588Z,99895.78
2018-12-22T05:19:20.752Z,99887.97
2018-12-22T05:21:50.168Z,99896.66
2018-12-22T05:24:19.288Z,99892.67
2018-12-22T05:26:48.628Z,99891.80
2018-12-22T05:29:17.749Z,99906.53
2018-12-22T05:31:47.084Z,99897.50
2018-12-22T05:34:16.219Z,99904.81
2018-12-22T05:36:45.788Z,99903.48
2018-12-22T05:39:15.102Z,99902.23
2018-12-22T05:41:44.432Z,99906.94
2018-12-22T05:44:13.945Z,99905.22
2018-12-22T05:46:43.067Z,99913.35
2018-12-22T05:49:12.429Z,99915.06
2018-12-22T05:51:41.883Z,99913.40
2018-12-22T05:54:11.273Z,99914.66
2018-12-22T05:56:41.053Z,99904.29
2018-12-22T05:59:10.604Z,99922.81
2018-12-22T06:01:39.740Z,99919.36
2018-12-22T06:04:09.467Z,99916.33
2018-12-22T06:06:38.613Z,99917.14
2018-12-22T06:09:07.861Z,99917.10
2018-12-22T06:11:37.180Z,99912.50
2018-12-22T06:14:06.264Z,99900.42
2018-12-22T06:16:35.532Z,99919.32
2018-12-22T06:19:04.681Z,99910.80
2018-12-22T06:21:34.359Z,99916.77
2018-12-22T06:24:03.508Z,99913.81
2018-12-22T06:26:32.943Z,99915.47
2018-12-22T06:29:02.300Z,99901.40
2018-12-22T06:31:31.552Z,99910.80
2018-12-22T06:34:00.719Z,99921.02
2018-12-22T06:36:30.157Z,99914.63
2018-12-22T06:38:59.690Z,99926.18
2018-12-22T06:41:29.093Z,99921.02
2018-12-22T06:43:58.509Z,99921.37
2018-12-22T06:46:27.643Z,99933.41
2018-12-22T06:48:57.139Z,99936.09
2018-12-22T06:51:26.700Z,99941.64
2018-12-22T06:53:56.309Z,99939.55
2018-12-22T06:56:25.546Z,99947.70
2018-12-22T06:58:54.792Z,99954.53
2018-12-22T07:01:24.233Z,99945.12
2018-12-22T07:03:53.349Z,99956.70
2018-12-22T07:06:22.566Z,99967.41
2018-12-22T07:08:52.060Z,99972.11
2018-12-22T07:11:21.186Z,99968.25
2018-12-22T07:13:50.536Z,99976.86
2018-12-22T07:16:20.056Z,99975.14
2018-12-22T07:18:49.563Z,99976.01
2018-12-22T07:21:18.612Z,99976.36
2018-12-22T07:23:47.943Z,99978.52
2018-12-22T07:26:17.110Z,99986.72
2018-12-22T07:28:46.243Z,99991.86
2018-12-22T07:31:16.149Z,99992.71
2018-12-22T07:33:45.590Z,99983.25
2018-12-22T07:36:14.747Z,99990.16
2018-12-22T07:38:43.916Z,99988.86
2018-12-22T07:41:13.072Z,100005.18
2018-12-22T07:46:19.059Z,100005.59
2018-12-22T07:48:48.460Z,100003.47
2018-12-22T07:51:17.604Z,100012.05
2018-12-22T07:53:47.199Z,100003.46
2018-12-22T07:56:16.356Z,100017.20
2018-12-22T07:58:46.068Z,100017.17
2018-12-22T08:01:15.154Z,100023.63
2018-12-22T08:03:44.247Z,100023.63
2018-12-22T08:06:13.373Z,100020.64
2018-12-22T08:08:42.694Z,100023.56
2018-12-22T08:11:12.204Z,100030.04
2018-12-22T08:13:41.671Z,100023.61
2018-12-22T08:16:10.841Z,100041.53
2018-12-22T08:18:40.188Z,100039.73
2018-12-22T08:21:09.556Z,100045.25
2018-12-22T08:23:38.837Z,100044.89
2018-12-22T08:26:07.981Z,100053.92
2018-12-22T08:28:37.262Z,100066.75
2018-12-22T08:31:06.411Z,100062.06
2018-12-22T08:33:35.552Z,100069.75
2018-12-22T08:36:04.837Z,100071.97
2018-12-22T08:38:33.989Z,100073.69
2018-12-22T08:41:03.189Z,100079.53
2018-12-22T08:43:32.330Z,100085.52
2018-12-22T08:46:01.832Z,100088.17
2018-12-22T08:48:31.007Z,100095.84
2018-12-22T08:51:02.639Z,100104.44
2018-12-22T08:53:31.718Z,100101.55
2018-12-22T08:56:00.964Z,100106.72
2018-12-22T08:58:30.116Z,100106.83
2018-12-22T09:00:59.578Z,100112.41
2018-12-22T09:03:28.722Z,100117.77
2018-12-22T09:05:58.405Z,100126.11
2018-12-22T09:08:27.829Z,100133.28
2018-12-22T09:10:57.323Z,100128.89
2018-12-22T09:13:26.421Z,100130.54
2018-12-22T09:15:55.588Z,100129.73
2018-12-22T09:18:25.077Z,100128.23
2018-12-22T09:20:54.413Z,100142.29
2018-12-22T09:23:23.849Z,100141.37
2018-12-22T09:25:52.892Z,100135.02
2018-12-22T09:28:22.123Z,100140.50
2018-12-22T09:30:51.715Z,100144.38
2018-12-22T09:33:21.264Z,100142.91
2018-12-22T09:35:50.768Z,100145.59
2018-12-22T09:38:21.087Z,100144.73
2018-12-22T09:40:50.594Z,100152.61
2018-12-22T09:43:20.049Z,100163.15
2018-12-22T09:45:49.184Z,100153.95
2018-12-22T09:48:18.659Z,100154.42
2018-12-22T09:50:48.361Z,100161.12
2018-12-22T09:53:17.710Z,100167.94
2018-12-22T09:55:47.129Z,100171.80
2018-12-22T09:58:16.464Z,100182.41
2018-12-22T10:00:45.665Z,100186.12
2018-12-22T10:05:52.103Z,100190.21
2018-12-22T10:08:21.257Z,100194.75
2018-12-22T10:10:50.408Z,100198.77
2018-12-22T10:13:19.567Z,100202.64
2018-12-22T10:15:48.817Z,100207.77
2018-12-22T10:18:18.229Z,100220.81
2018-12-22T10:20:47.424Z,100228.72
2018-12-22T10:23:16.855Z,100228.27
2018-12-22T10:25:46.200Z,100236.35
2018-12-22T10:28:15.527Z,100233.82
2018-12-22T10:30:44.663Z,100240.74
2018-12-22T10:33:13.969Z,100244.86
2018-12-22T10:35:43.324Z,100243.52
2018-12-22T10:38:12.692Z,100252.67
2018-12-22T10:40:42.076Z,100260.33
2018-12-22T10:43:11.236Z,100263.19
2018-12-22T10:45:40.576Z,100265.50
2018-12-22T10:48:09.724Z,100272.02
2018-12-22T10:50:39.176Z,100273.88
2018-12-22T10:53:08.657Z,100274.70
2018-12-22T10:55:37.837Z,100276.42
2018-12-22T10:58:07.597Z,100282.97
2018-12-22T11:00:37.058Z,100292.01
2018-12-22T11:03:06.193Z,100294.72
2018-12-22T11:05:35.564Z,100308.76
2018-12-22T11:08:04.789Z,100307.72
2018-12-22T11:10:34.181Z,100318.05
2018-12-22T11:13:03.674Z,100322.09
2018-12-22T11:15:32.916Z,100335.78
2018-12-22T11:18:02.421Z,100328.55
2018-12-22T11:20:31.556Z,100335.55
2018-12-22T11:23:01.061Z,100335.98
2018-12-22T11:25:30.567Z,100339.61
2018-12-22T11:28:00.156Z,100338.22
2018-12-22T11:30:39.064Z,100346.42
2018-12-22T11:33:08.352Z,100349.89
2018-12-22T11:35:37.560Z,100350.17
2018-12-22T11:38:07.698Z,100354.63
2018-12-22T11:40:37.493Z,100354.16
2018-12-22T11:43:06.951Z,100363.06
2018-12-22T11:45:36.432Z,100367.70
2018-12-22T11:48:29.447Z,100370.38
2018-12-22T11:50:58.782Z,100378.41
2018-12-22T11:53:28.034Z,100388.56
2018-12-22T11:55:57.762Z,100389.66
2018-12-22T11:58:27.647Z,100393.59
2018-12-22T12:00:56.884Z,100403.66
2018-12-22T12:03:26.286Z,100413.02
2018-12-22T12:05:55.592Z,100428.09
2018-12-22T12:08:25.005Z,100431.34
2018-12-22T12:10:54.457Z,100443.84
2018-12-22T12:13:23.626Z,100459.22
2018-12-22T12:16:02.348Z,100458.18
2018-12-22T12:19:44.061Z,100461.83
2018-12-22T12:22:13.215Z,100469.23
2018-12-22T12:24:42.642Z,100474.93
2018-12-22T12:27:11.802Z,100472.78
2018-12-22T12:29:40.924Z,100490.80
2018-12-22T12:32:10.040Z,100490.59
2018-12-22T12:34:39.580Z,100501.63
2018-12-22T12:37:09.026Z,100500.01
2018-12-22T12:39:38.356Z,100508.55
2018-12-22T12:42:07.790Z,100519.67
2018-12-22T12:44:42.281Z,100519.27
2018-12-22T12:47:12.052Z,100533.16
2018-12-22T12:49:41.222Z,100525.45
2018-12-22T12:52:10.813Z,100523.60
2018-12-22T12:54:39.988Z,100537.91
2018-12-22T12:57:09.136Z,100532.47
2018-12-22T12:59:38.508Z,100541.86
2018-12-22T13:02:09.145Z,100546.19
2018-12-22T13:04:38.255Z,100552.95
2018-12-22T13:07:07.659Z,100559.27
2018-12-22T13:09:37.134Z,100558.84
2018-12-22T13:12:14.603Z,100567.77
2018-12-22T13:14:46.890Z,100576.67
2018-12-22T13:17:16.230Z,100582.02
2018-12-22T13:19:45.689Z,100586.64
2018-12-22T13:22:15.021Z,100593.03
2018-12-22T13:24:45.072Z,100605.08
2018-12-22T13:27:15.184Z,100601.45
2018-12-22T13:29:44.764Z,100606.23
2018-12-22T13:32:14.172Z,100609.75
2018-12-22T13:34:45.240Z,100616.55
2018-12-22T13:37:14.641Z,100615.05
2018-12-22T13:39:44.257Z,100624.95
2018-12-22T13:42:13.545Z,100632.24
2018-12-22T13:44:42.918Z,100628.36
2018-12-22T13:47:12.094Z,100640.63
2018-12-22T13:50:45.451Z,100644.33
2018-12-22T13:53:15.340Z,100657.66
2018-12-22T13:55:44.598Z,100665.45
2018-12-22T13:58:13.831Z,100668.30
2018-12-22T14:00:47.456Z,100676.05
2018-12-22T14:03:22.382Z,100684.69
2018-12-22T14:05:51.731Z,100689.61
2018-12-22T14:08:21.429Z,100695.91
2018-12-22T14:10:50.904Z,100701.03
2018-12-22T14:13:20.352Z,100714.83
2018-12-22T14:15:57.000Z,100713.60
2018-12-22T14:18:35.628Z,100719.52
2018-12-22T14:21:04.831Z,100722.56
2018-12-22T14:23:54.252Z,100724.89
2018-12-22T14:29:02.750Z,100741.50
2018-12-22T14:31:32.004Z,100742.72
2018-12-22T14:34:09.542Z,100749.20
2018-12-22T14:36:39.076Z,100750.23
2018-12-22T14:39:09.776Z,100757.20
2018-12-22T14:41:39.115Z,100761.59
2018-12-22T14:44:08.269Z,100768.24
2018-12-22T14:46:37.391Z,100771.63
2018-12-22T14:49:07.054Z,100766.11
2018-12-22T14:51:36.218Z,100772.63
2018-12-22T14:54:05.490Z,100776.36
2018-12-22T14:56:41.816Z,100779.78
2018-12-22T14:59:14.136Z,100787.58
2018-12-22T15:01:43.901Z,100795.58
2018-12-22T15:06:51.912Z,100807.86
2018-12-22T15:09:21.533Z,100814.45
2018-12-22T15:11:50.916Z,100814.03
2018-12-22T15:14:20.144Z,100818.20
2018-12-22T15:16:49.577Z,100830.06
2018-12-22T15:19:18.730Z,100831.68
2018-12-22T15:21:54.297Z,100838.80
2018-12-22T15:24:23.464Z,100849.23
2018-12-22T15:26:52.674Z,100850.83
2018-12-22T15:29:21.796Z,100857.56
2018-12-22T15:31:51.144Z,100866.92
2018-12-22T15:34:20.857Z,100871.61
2018-12-22T15:36:50.020Z,100878.19
2018-12-22T15:39:19.375Z,100873.50
2018-12-22T15:41:48.507Z,100884.00
2018-12-22T15:44:18.078Z,100880.38
2018-12-22T15:46:47.228Z,100879.47
2018-12-22T15:49:18.476Z,100875.64
2018-12-22T15:51:47.612Z,100878.67
2018-12-22T15:54:16.767Z,100883.78
2018-12-22T15:56:45.892Z,100883.80
2018-12-22T15:59:14.977Z,100879.84
2018-12-22T16:01:44.200Z,100888.63
2018-12-22T16:04:13.537Z,100893.58
2018-12-22T16:06:43.222Z,100888.25
2018-12-22T16:09:12.821Z,100893.49
2018-12-22T16:11:42.165Z,100899.33
2018-12-22T16:14:11.315Z,100899.11
2018-12-22T16:16:41.036Z,100902.66
2018-12-22T16:19:10.483Z,100904.70
2018-12-22T16:21:39.607Z,100904.88
2018-12-22T16:24:09.248Z,100909.59
2018-12-22T16:26:38.505Z,100903.90
2018-12-22T16:29:14.272Z,100899.59
2018-12-22T16:31:43.485Z,100894.23
2018-12-22T16:34:13.050Z,100896.97
2018-12-22T16:36:42.312Z,100891.77
2018-12-22T16:39:11.864Z,100893.80
2018-12-22T16:41:41.072Z,100894.83
2018-12-22T16:44:15.608Z,100889.20
2018-12-22T16:46:45.114Z,100895.89
2018-12-22T16:49:14.632Z,100893.34
2018-12-22T16:51:44.238Z,100887.12
2018-12-22T16:54:13.443Z,100887.33
2018-12-22T16:56:42.986Z,100896.27
2018-12-22T16:59:12.201Z,100894.20
2018-12-22T17:01:49.617Z,100900.06
2018-12-22T17:04:19.184Z,100907.70
2018-12-22T17:06:48.586Z,100907.50
2018-12-22T17:09:17.809Z,100915.09
2018-12-22T17:11:47.285Z,100919.06
2018-12-22T17:14:16.712Z,100919.28
2018-12-22T17:16:47.056Z,100915.87
2018-12-22T17:19:16.760Z,100926.73
2018-12-22T17:21:57.190Z,100918.98
2018-12-22T17:24:43.551Z,100923.14
2018-12-22T17:27:12.965Z,100924.53
2018-12-22T17:29:42.469Z,100927.53
2018-12-22T17:32:12.313Z,100923.79
2018-12-22T17:34:41.534Z,100921.75
2018-12-22T17:37:10.781Z,100926.77
2018-12-22T17:39:39.905Z,100925.72
2018-12-22T17:42:09.053Z,100927.42
2018-12-22T17:44:38.225Z,100923.88
2018-12-22T17:47:07.406Z,100934.97
2018-12-22T17:49:37.301Z,100943.41
2018-12-22T17:52:06.444Z,100935.56
2018-12-22T17:54:35.981Z,100936.98
2018-12-22T17:57:05.358Z,100934.38
2018-12-22T17:59:34.477Z,100930.32
2018-12-22T18:02:03.806Z,100927.30
2018-12-22T18:04:33.223Z,100934.96
2018-12-22T18:07:02.357Z,100939.63
2018-12-22T18:09:31.741Z,100937.48
2018-12-22T18:12:01.362Z,100949.63
2018-12-22T18:14:30.494Z,100947.77
2018-12-22T18:16:59.645Z,100951.56
2018-12-22T18:19:29.292Z,100957.99
2018-12-22T18:21:58.587Z,100956.50
2018-12-22T18:24:28.331Z,100963.66
2018-12-22T18:26:57.485Z,100966.52
2018-12-22T18:29:26.813Z,100968.80
2018-12-22T18:31:56.229Z,100968.00
2018-12-22T18:34:25.464Z,100968.38
2018-12-22T18:36:55.014Z,100967.53
2018-12-22T18:39:24.234Z,100967.48
2018-12-22T18:41:53.727Z,100974.73
2018-12-22T18:44:22.863Z,100967.39
2018-12-22T18:46:52.208Z,100968.70
2018-12-22T18:49:21.343Z,100968.34
2018-12-22T18:51:50.696Z,100974.46
2018-12-22T18:54:19.890Z,100975.19
2018-12-22T18:56:49.067Z,100975.27
2018-12-22T18:59:19.102Z,100985.48
2018-12-22T19:01:48.286Z,100982.94
2018-12-22T19:04:17.469Z,100982.45
2018-12-22T19:06:46.684Z,100980.89
2018-12-22T19:09:25.129Z,100976.64
2018-12-22T19:11:54.476Z,100981.28
2018-12-22T19:14:23.656Z,100983.13
2018-12-22T19:16:53.108Z,100981.30
2018-12-22T19:19:22.316Z,100983.97
2018-12-22T19:21:51.792Z,100989.22
2018-12-22T19:24:21.539Z,100990.53
2018-12-22T19:26:50.752Z,100992.05
2018-12-22T19:29:19.867Z,100990.09
2018-12-22T19:31:49.082Z,100997.35
2018-12-22T19:34:18.564Z,100996.94
2018-12-22T19:36:47.666Z,101005.45
2018-12-22T19:39:17.080Z,101002.23
2018-12-22T19:41:46.737Z,101003.22
2018-12-22T19:44:16.478Z,101002.86
2018-12-22T19:46:45.868Z,100999.27
2018-12-22T19:49:15.742Z,101008.19
2018-12-22T19:51:45.682Z,101003.55
2018-12-22T19:54:15.018Z,101007.09
2018-12-22T19:56:44.305Z,101004.41
2018-12-22T19:59:13.718Z,101003.27
2018-12-22T20:01:43.776Z,101005.11
2018-12-22T20:04:14.221Z,101004.88
2018-12-22T20:06:43.828Z,101002.87
2018-12-22T20:09:13.041Z,101003.45
2018-12-22T20:11:42.250Z,100999.68
2018-12-22T20:14:12.235Z,100996.52
2018-12-22T20:16:42.510Z,100998.05
2018-12-22T20:19:11.938Z,100994.67
2018-12-22T20:21:47.398Z,100999.44
2018-12-22T20:24:17.084Z,101006.91
2018-12-22T20:26:46.973Z,101010.13
2018-12-22T20:29:16.321Z,101015.33
2018-12-22T20:31:46.148Z,101012.59
2018-12-22T20:34:15.307Z,101014.42
2018-12-22T20:36:44.709Z,101012.36
2018-12-22T20:39:14.682Z,101015.90
2018-12-22T20:41:43.979Z,101020.11
2018-12-22T20:44:13.220Z,101021.75
2018-12-22T20:46:42.370Z,101028.54
2018-12-22T20:49:12.585Z,101026.64
2018-12-22T20:51:42.124Z,101022.73
2018-12-22T20:54:11.321Z,101025.00
2018-12-22T20:56:40.594Z,101027.39
2018-12-22T20:59:09.996Z,101031.38
2018-12-22T21:01:39.498Z,101033.94
2018-12-22T21:04:08.889Z,101032.09
2018-12-22T21:06:38.720Z,101038.77
2018-12-22T21:09:08.589Z,101034.44
2018-12-22T21:11:37.729Z,101036.50
2018-12-22T21:14:07.211Z,101041.59
2018-12-22T21:16:36.679Z,101040.61
2018-12-22T21:19:05.970Z,101041.45
2018-12-22T21:21:35.332Z,101039.57
2018-12-22T21:24:04.762Z,101043.84
2018-12-22T21:26:33.914Z,101044.52
2018-12-22T21:29:03.393Z,101050.08
2018-12-22T21:31:32.791Z,101054.61
2018-12-22T21:34:02.466Z,101054.05
2018-12-22T21:36:31.996Z,101055.08
2018-12-22T21:39:01.472Z,101060.30
2018-12-22T21:41:30.814Z,101056.37
2018-12-22T21:43:59.893Z,101064.91
2018-12-22T21:46:29.044Z,101068.84
2018-12-22T21:48:58.577Z,101062.03
2018-12-22T21:51:27.797Z,101067.20
2018-12-22T21:53:57.065Z,101070.70
2018-12-22T21:56:26.488Z,101068.91
2018-12-22T21:58:55.670Z,101068.47
2018-12-22T22:01:25.270Z,101080.83
2018-12-22T22:03:54.667Z,101089.47
2018-12-22T22:06:26.708Z,101088.47
2018-12-22T22:08:56.039Z,101100.41
2018-12-22T22:11:25.203Z,101096.70
2018-12-22T22:13:54.353Z,101094.22
2018-12-22T22:16:23.765Z,101098.20
2018-12-22T22:18:52.953Z,101093.38
2018-12-22T22:21:22.917Z,101098.30
2018-12-22T22:23:52.543Z,101100.38
2018-12-22T22:26:22.141Z,101098.39
2018-12-22T22:28:51.314Z,101104.98
2018-12-22T22:31:20.645Z,101107.00
2018-12-22T22:33:49.797Z,101109.99
2018-12-22T22:36:18.932Z,101108.86
2018-12-22T22:38:48.131Z,101105.88
2018-12-22T22:41:17.525Z,101111.13
2018-12-22T22:43:47.393Z,101110.96
2018-12-22T22:46:16.991Z,101127.95
2018-12-22T22:48:46.161Z,101128.42
2018-12-22T22:51:15.448Z,101131.50
2018-12-22T22:53:44.881Z,101138.98
2018-12-22T22:56:14.286Z,101140.63
2018-12-22T22:58:44.025Z,101145.84
2018-12-22T23:01:13.173Z,101147.62
2018-12-22T23:03:42.418Z,101154.66
2018-12-22T23:06:11.629Z,101163.16
2018-12-22T23:08:41.113Z,101164.08
2018-12-22T23:11:10.252Z,101165.80
2018-12-22T23:13:39.523Z,101171.57
2018-12-22T23:16:08.680Z,101171.52
2018-12-22T23:18:38.041Z,101173.30
2018-12-22T23:21:07.198Z,101172.36
2018-12-22T23:23:36.602Z,101183.48
2018-12-22T23:26:06.141Z,101183.45
2018-12-22T23:28:35.401Z,101182.98
2018-12-22T23:31:04.940Z,101188.20
2018-12-22T23:33:34.490Z,101189.98
2018-12-22T23:36:04.070Z,101185.98
2018-12-22T23:38:33.157Z,101188.98
2018-12-22T23:41:02.357Z,101191.26
2018-12-22T23:43:31.629Z,101201.02
2018-12-22T23:46:00.962Z,101198.97
2018-12-22T23:48:30.871Z,101201.38
2018-12-22T23:51:00.580Z,101206.72
2018-12-22T23:53:29.806Z,101213.33
2018-12-22T23:55:59.214Z,101221.55
2018-12-22T23:58:28.634Z,101235.78
